Time;durP1;ratioP1;P1;durP2;ratioP2;P2;SDS_P1;SDS_P2;PMS_P1;PMS_P2;Temp;Humidity;BMP_temperature;BMP_pressure;BME280_temperature;BME280_humidity;BME280_pressure;Samples;Min_cycle;Max_cycle;Signal;HPM_P1;HPM_P2
2022/02/13 00:01:45;;;;;;;10.10;5.82;;;;;;;;;;4820927;29;20085;-71
2022/02/13 00:04:13;;;;;;;10.90;5.38;;;;;;;;;;4821781;29;20147;-73
2022/02/13 00:06:39;;;;;;;10.75;5.15;;;;;;;;;;4808766;29;20129;-73
2022/02/13 00:09:06;;;;;;;9.15;4.80;;;;;;;;;;4838499;29;20062;-70
2022/02/13 00:11:32;;;;;;;13.25;5.88;;;;;;;;;;4819279;29;20078;-73
2022/02/13 00:13:58;;;;;;;10.57;4.95;;;;;;;;;;4822309;29;20188;-69
2022/02/13 00:16:24;;;;;;;12.43;4.85;;;;;;;;;;4824316;29;20050;-69
2022/02/13 00:18:50;;;;;;;11.60;5.70;;;;;;;;;;4824714;29;20545;-69
2022/02/13 00:21:16;;;;;;;11.95;5.60;;;;;;;;;;4823413;29;20099;-69
2022/02/13 00:23:42;;;;;;;10.57;5.38;;;;;;;;;;4838032;29;20061;-70
2022/02/13 00:26:08;;;;;;;10.70;6.05;;;;;;;;;;4824496;29;20042;-69
2022/02/13 00:28:36;;;;;;;10.80;5.03;;;;;;;;;;4823614;29;20440;-69
2022/02/13 00:31:02;;;;;;;9.27;5.10;;;;;;;;;;4824045;29;20093;-69
2022/02/13 00:33:28;;;;;;;10.05;5.13;;;;;;;;;;4822865;29;20582;-69
2022/02/13 00:35:55;;;;;;;10.15;4.90;;;;;;;;;;4827244;29;20052;-69
2022/02/13 00:38:21;;;;;;;11.73;5.32;;;;;;;;;;4824900;29;20053;-72
2022/02/13 00:40:47;;;;;;;13.85;5.50;;;;;;;;;;4838980;29;20050;-69
2022/02/13 00:43:13;;;;;;;10.85;5.18;;;;;;;;;;4821327;29;20471;-69
2022/02/13 00:45:39;;;;;;;12.68;5.75;;;;;;;;;;4823627;29;20101;-69
2022/02/13 00:48:07;;;;;;;12.43;4.60;;;;;;;;;;4808065;29;20190;-69
2022/02/13 00:50:33;;;;;;;12.10;4.82;;;;;;;;;;4810161;29;20054;-69
2022/02/13 00:53:00;;;;;;;11.48;5.25;;;;;;;;;;4823612;29;20053;-71
2022/02/13 00:55:26;;;;;;;11.40;5.63;;;;;;;;;;4819297;29;20054;-69
2022/02/13 00:57:52;;;;;;;13.23;5.55;;;;;;;;;;4838213;29;20078;-69
2022/02/13 01:00:18;;;;;;;15.85;6.57;;;;;;;;;;4825044;29;20064;-70
2022/02/13 01:02:44;;;;;;;11.55;4.90;;;;;;;;;;4822376;29;20050;-72
2022/02/13 01:05:10;;;;;;;15.05;5.72;;;;;;;;;;4821552;29;20058;-70
2022/02/13 01:07:36;;;;;;;14.73;5.82;;;;;;;;;;4821739;29;20111;-70
2022/02/13 01:10:03;;;;;;;13.02;5.63;;;;;;;;;;4839008;29;20053;-71
2022/02/13 01:12:29;;;;;;;12.40;5.47;;;;;;;;;;4822592;29;20088;-69
2022/02/13 01:14:55;;;;;;;11.68;5.63;;;;;;;;;;4835878;29;20498;-70
2022/02/13 01:17:21;;;;;;;13.48;5.35;;;;;;;;;;4822179;29;20151;-70
2022/02/13 01:19:47;;;;;;;10.48;5.20;;;;;;;;;;4824289;29;20049;-69
2022/02/13 01:22:13;;;;;;;9.63;5.30;;;;;;;;;;4822484;29;20462;-70
2022/02/13 01:24:39;;;;;;;10.25;5.55;;;;;;;;;;4822736;29;20111;-69
2022/02/13 01:27:05;;;;;;;10.70;5.60;;;;;;;;;;4792421;29;20082;-69
2022/02/13 01:29:31;;;;;;;15.10;5.50;;;;;;;;;;4807553;29;20069;-70
2022/02/13 01:31:58;;;;;;;9.32;5.20;;;;;;;;;;4818887;29;20094;-69
2022/02/13 01:34:24;;;;;;;16.50;6.43;;;;;;;;;;4817206;29;20053;-69
2022/02/13 01:36:50;;;;;;;11.98;5.45;;;;;;;;;;4820036;29;20050;-69
2022/02/13 01:39:16;;;;;;;13.57;5.85;;;;;;;;;;4807901;29;20049;-70
2022/02/13 01:41:45;;;;;;;15.25;5.93;;;;;;;;;;4851228;29;20086;-69
2022/02/13 01:44:24;;;;;;;16.52;5.95;;;;;;;;;;4852106;29;20054;-69
2022/02/13 01:46:50;;;;;;;10.98;5.60;;;;;;;;;;4821640;29;20054;-71
2022/02/13 01:49:16;;;;;;;13.00;7.07;;;;;;;;;;4821554;29;20053;-69
2022/02/13 01:51:42;;;;;;;12.18;5.85;;;;;;;;;;4823406;29;20082;-70
2022/02/13 01:54:09;;;;;;;14.52;5.85;;;;;;;;;;4826124;29;20049;-69
2022/02/13 01:56:36;;;;;;;13.43;6.22;;;;;;;;;;4808240;29;20058;-69
2022/02/13 01:59:02;;;;;;;12.32;6.43;;;;;;;;;;4808496;29;20140;-69
2022/02/13 02:01:29;;;;;;;12.50;5.70;;;;;;;;;;4804103;29;20085;-70
2022/02/13 02:03:55;;;;;;;12.45;5.60;;;;;;;;;;4850241;29;20046;-69
2022/02/13 02:06:21;;;;;;;9.90;5.90;;;;;;;;;;4821564;29;20420;-70
2022/02/13 02:08:47;;;;;;;14.65;5.90;;;;;;;;;;4824428;29;20156;-69
2022/02/13 02:11:13;;;;;;;11.52;6.03;;;;;;;;;;4807911;29;20053;-70
2022/02/13 02:13:39;;;;;;;12.35;6.10;;;;;;;;;;4821726;29;20106;-69
2022/02/13 02:16:08;;;;;;;16.35;7.38;;;;;;;;;;4820091;29;20148;-69
2022/02/13 02:18:34;;;;;;;14.98;6.53;;;;;;;;;;4822039;29;20049;-70
2022/02/13 02:21:03;;;;;;;13.07;6.20;;;;;;;;;;4807259;29;20058;-69
2022/02/13 02:23:29;;;;;;;13.05;5.70;;;;;;;;;;4849122;29;20057;-73
2022/02/13 02:25:55;;;;;;;9.45;5.10;;;;;;;;;;4819977;29;20055;-69
2022/02/13 02:28:21;;;;;;;12.23;5.47;;;;;;;;;;4834535;29;20058;-69
2022/02/13 02:30:47;;;;;;;14.05;5.60;;;;;;;;;;4820794;29;20058;-69
2022/02/13 02:33:14;;;;;;;10.25;5.57;;;;;;;;;;4823406;29;20478;-69
2022/02/13 02:35:40;;;;;;;11.73;6.10;;;;;;;;;;4838568;29;20055;-69
2022/02/13 02:38:07;;;;;;;14.65;5.50;;;;;;;;;;4821460;29;20045;-69
2022/02/13 02:40:33;;;;;;;17.02;6.35;;;;;;;;;;4821462;29;20153;-69
2022/02/13 02:42:59;;;;;;;10.98;6.00;;;;;;;;;;4821270;29;20046;-69
2022/02/13 02:45:25;;;;;;;11.20;5.65;;;;;;;;;;4820855;29;20046;-69
2022/02/13 02:47:51;;;;;;;14.52;6.45;;;;;;;;;;4822377;29;20214;-69
2022/02/13 02:50:17;;;;;;;16.17;7.20;;;;;;;;;;4821715;29;20061;-70
2022/02/13 02:52:43;;;;;;;13.30;5.93;;;;;;;;;;4817937;29;20162;-70
2022/02/13 02:55:09;;;;;;;12.60;6.25;;;;;;;;;;4818894;29;20042;-69
2022/02/13 02:57:36;;;;;;;14.80;6.53;;;;;;;;;;4820175;29;20046;-69
2022/02/13 03:00:03;;;;;;;14.30;5.75;;;;;;;;;;4820581;29;20058;-70
2022/02/13 03:02:29;;;;;;;12.38;5.88;;;;;;;;;;4821133;29;20057;-68
2022/02/13 03:04:55;;;;;;;11.98;6.65;;;;;;;;;;4822971;29;20057;-69
2022/02/13 03:07:21;;;;;;;11.35;5.68;;;;;;;;;;4821655;29;20054;-69
2022/02/13 03:09:47;;;;;;;13.82;5.68;;;;;;;;;;4804079;29;20045;-69
2022/02/13 03:12:13;;;;;;;14.13;6.22;;;;;;;;;;4820457;29;20405;-71
2022/02/13 03:14:40;;;;;;;10.77;6.38;;;;;;;;;;4824349;29;20486;-69
2022/02/13 03:17:06;;;;;;;18.80;6.50;;;;;;;;;;4821137;29;20774;-69
2022/02/13 03:19:36;;;;;;;12.00;6.40;;;;;;;;;;4820895;29;20082;-69
2022/02/13 03:22:02;;;;;;;13.30;6.65;;;;;;;;;;4821926;29;20076;-69
2022/02/13 03:24:28;;;;;;;19.27;6.68;;;;;;;;;;4821174;29;20058;-73
2022/02/13 03:26:54;;;;;;;13.43;6.70;;;;;;;;;;4837261;29;20467;-69
2022/02/13 03:29:20;;;;;;;14.60;6.95;;;;;;;;;;4834405;29;20069;-69
2022/02/13 03:31:48;;;;;;;15.90;7.55;;;;;;;;;;4821123;29;20478;-69
2022/02/13 03:34:14;;;;;;;13.27;6.55;;;;;;;;;;4808746;29;20053;-73
2022/02/13 03:36:40;;;;;;;10.82;6.47;;;;;;;;;;4822901;29;20090;-69
2022/02/13 03:39:06;;;;;;;12.13;6.50;;;;;;;;;;4806370;29;20531;-69
2022/02/13 03:41:33;;;;;;;14.18;6.70;;;;;;;;;;4808681;29;20106;-69
2022/02/13 03:43:59;;;;;;;13.35;7.53;;;;;;;;;;4824581;29;20128;-69
2022/02/13 03:46:25;;;;;;;17.25;7.35;;;;;;;;;;4824313;29;20552;-69
2022/02/13 03:48:51;;;;;;;14.18;7.10;;;;;;;;;;4824064;29;20133;-69
2022/02/13 03:51:17;;;;;;;14.43;7.50;;;;;;;;;;4825021;29;20056;-69
2022/02/13 03:53:43;;;;;;;12.50;7.28;;;;;;;;;;4824297;29;20125;-70
2022/02/13 03:56:09;;;;;;;16.90;7.65;;;;;;;;;;4825340;29;20054;-70
2022/02/13 03:58:35;;;;;;;13.55;7.43;;;;;;;;;;4824527;29;20126;-69
2022/02/13 04:01:02;;;;;;;15.85;7.35;;;;;;;;;;4838947;29;20140;-69
2022/02/13 04:03:29;;;;;;;15.05;7.20;;;;;;;;;;4824366;29;20054;-69
2022/02/13 04:05:55;;;;;;;20.08;7.65;;;;;;;;;;4824539;29;21695;-69
2022/02/13 04:08:22;;;;;;;18.92;7.35;;;;;;;;;;4808064;29;20508;-69
2022/02/13 04:10:48;;;;;;;14.48;7.13;;;;;;;;;;4794334;29;20489;-69
2022/02/13 04:13:14;;;;;;;22.48;9.02;;;;;;;;;;4822591;29;20046;-69
2022/02/13 04:15:41;;;;;;;16.90;7.82;;;;;;;;;;4808947;29;20077;-69
2022/02/13 04:18:14;;;;;;;14.07;8.02;;;;;;;;;;4809696;29;20450;-69
2022/02/13 04:20:40;;;;;;;11.48;7.38;;;;;;;;;;4822866;29;20404;-69
2022/02/13 04:23:06;;;;;;;14.43;7.13;;;;;;;;;;4808591;29;20082;-69
2022/02/13 04:25:32;;;;;;;15.02;7.32;;;;;;;;;;4824445;29;20049;-69
2022/02/13 04:27:58;;;;;;;18.40;7.72;;;;;;;;;;4852379;29;20402;-69
2022/02/13 04:30:24;;;;;;;16.52;7.47;;;;;;;;;;4855970;29;20045;-71
2022/02/13 04:32:50;;;;;;;18.65;8.05;;;;;;;;;;4823271;29;20389;-69
2022/02/13 04:35:16;;;;;;;11.45;6.88;;;;;;;;;;4807028;29;20478;-69
2022/02/13 04:37:42;;;;;;;13.95;6.78;;;;;;;;;;4812894;29;20061;-69
2022/02/13 04:40:09;;;;;;;12.65;7.15;;;;;;;;;;4836733;29;20524;-69
2022/02/13 04:42:35;;;;;;;16.77;7.50;;;;;;;;;;4821041;29;20153;-70
2022/02/13 04:45:04;;;;;;;14.68;7.70;;;;;;;;;;4823994;29;20502;-69
2022/02/13 04:47:30;;;;;;;18.00;7.35;;;;;;;;;;4822698;29;20065;-69
2022/02/13 04:49:56;;;;;;;15.05;7.93;;;;;;;;;;4822445;29;20038;-69
2022/02/13 04:52:22;;;;;;;15.27;7.25;;;;;;;;;;4823846;29;20119;-73
2022/02/13 04:54:48;;;;;;;12.27;7.63;;;;;;;;;;4804960;29;20054;-69
2022/02/13 04:57:14;;;;;;;15.23;7.10;;;;;;;;;;4823906;29;20053;-69
2022/02/13 04:59:41;;;;;;;16.08;7.22;;;;;;;;;;4822901;29;20382;-69
2022/02/13 05:02:07;;;;;;;14.43;7.35;;;;;;;;;;4837515;29;20141;-69
2022/02/13 05:04:33;;;;;;;16.40;7.78;;;;;;;;;;4823479;29;20134;-69
2022/02/13 05:07:00;;;;;;;14.82;7.45;;;;;;;;;;4822391;29;20121;-70
2022/02/13 05:09:26;;;;;;;14.10;7.43;;;;;;;;;;4821393;29;20129;-69
2022/02/13 05:11:52;;;;;;;19.08;7.68;;;;;;;;;;4838304;29;20060;-69
2022/02/13 05:14:18;;;;;;;17.35;8.57;;;;;;;;;;4822544;29;20050;-69
2022/02/13 05:16:44;;;;;;;13.93;7.55;;;;;;;;;;4823075;29;20061;-69
2022/02/13 05:19:11;;;;;;;18.30;8.52;;;;;;;;;;4825906;29;20046;-69
2022/02/13 05:21:37;;;;;;;13.85;7.25;;;;;;;;;;4808778;29;20058;-69
2022/02/13 05:24:03;;;;;;;21.13;7.90;;;;;;;;;;4823557;29;20056;-72
2022/02/13 05:26:29;;;;;;;13.35;7.75;;;;;;;;;;4822514;29;20398;-69
2022/02/13 05:28:55;;;;;;;13.15;7.15;;;;;;;;;;4808642;29;20538;-69
2022/02/13 05:31:21;;;;;;;15.40;7.63;;;;;;;;;;4838410;29;20050;-70
2022/02/13 05:33:48;;;;;;;15.57;7.93;;;;;;;;;;4822080;29;20049;-71
2022/02/13 05:36:14;;;;;;;15.23;7.18;;;;;;;;;;4822860;29;20042;-70
2022/02/13 05:38:40;;;;;;;14.45;7.22;;;;;;;;;;4808275;29;20065;-70
2022/02/13 05:41:06;;;;;;;16.23;8.38;;;;;;;;;;4824253;29;20053;-69
2022/02/13 05:43:32;;;;;;;13.70;7.53;;;;;;;;;;4837504;29;20046;-69
2022/02/13 05:45:58;;;;;;;14.57;7.80;;;;;;;;;;4822396;29;20136;-69
2022/02/13 05:48:25;;;;;;;14.95;7.20;;;;;;;;;;4821220;29;20118;-70
2022/02/13 05:50:51;;;;;;;16.38;7.88;;;;;;;;;;4823206;29;20052;-69
2022/02/13 05:53:18;;;;;;;16.38;8.32;;;;;;;;;;4808328;29;20074;-69
2022/02/13 05:55:44;;;;;;;15.13;7.75;;;;;;;;;;4821082;29;20472;-69
2022/02/13 05:58:10;;;;;;;12.23;7.38;;;;;;;;;;4806532;29;20528;-69
2022/02/13 06:00:36;;;;;;;16.23;7.50;;;;;;;;;;4822664;29;20050;-70
2022/02/13 06:03:04;;;;;;;12.35;6.82;;;;;;;;;;4821714;29;20062;-70
2022/02/13 06:05:30;;;;;;;12.60;7.65;;;;;;;;;;4823811;29;20921;-71
2022/02/13 06:07:56;;;;;;;13.57;7.00;;;;;;;;;;4821237;29;20401;-72
2022/02/13 06:10:22;;;;;;;11.35;7.25;;;;;;;;;;4824102;29;20477;-69
2022/02/13 06:12:48;;;;;;;14.48;8.07;;;;;;;;;;4823624;29;20488;-69
2022/02/13 06:15:14;;;;;;;13.88;6.95;;;;;;;;;;4819796;29;20074;-69
2022/02/13 06:17:40;;;;;;;15.50;7.53;;;;;;;;;;4820771;29;20046;-69
2022/02/13 06:20:07;;;;;;;17.50;7.68;;;;;;;;;;4820823;29;20197;-69
2022/02/13 06:22:33;;;;;;;14.27;7.18;;;;;;;;;;4818675;29;20042;-70
2022/02/13 06:24:59;;;;;;;13.88;7.25;;;;;;;;;;4810469;29;20054;-70
2022/02/13 06:27:25;;;;;;;13.68;7.43;;;;;;;;;;4814442;29;20054;-69
2022/02/13 06:29:51;;;;;;;16.02;7.95;;;;;;;;;;4805222;29;20559;-70
2022/02/13 06:32:17;;;;;;;11.13;7.43;;;;;;;;;;4822157;29;20046;-69
2022/02/13 06:34:43;;;;;;;14.60;8.15;;;;;;;;;;4819047;29;20046;-69
2022/02/13 06:37:09;;;;;;;14.00;7.55;;;;;;;;;;4821649;29;20061;-71
2022/02/13 06:39:36;;;;;;;18.92;8.40;;;;;;;;;;4819464;29;20058;-70
2022/02/13 06:42:02;;;;;;;11.55;6.90;;;;;;;;;;4811379;29;20052;-70
2022/02/13 06:44:28;;;;;;;14.82;7.72;;;;;;;;;;4822310;29;20058;-69
2022/02/13 06:46:54;;;;;;;12.95;7.65;;;;;;;;;;4820062;29;20065;-69
2022/02/13 06:49:20;;;;;;;16.40;7.47;;;;;;;;;;4825900;29;20085;-70
2022/02/13 06:51:46;;;;;;;14.80;7.85;;;;;;;;;;4820883;29;20529;-70
2022/02/13 06:54:12;;;;;;;13.25;7.20;;;;;;;;;;4808030;29;20466;-71
2022/02/13 06:56:38;;;;;;;13.20;7.05;;;;;;;;;;4805658;29;20054;-71
2022/02/13 06:59:04;;;;;;;12.05;7.22;;;;;;;;;;4820446;29;20046;-71
2022/02/13 07:01:30;;;;;;;14.43;7.55;;;;;;;;;;4820250;29;20385;-71
2022/02/13 07:03:57;;;;;;;12.35;7.25;;;;;;;;;;4824928;29;20045;-74
2022/02/13 07:06:23;;;;;;;11.32;6.85;;;;;;;;;;4817738;29;20486;-70
2022/02/13 07:08:49;;;;;;;16.67;7.38;;;;;;;;;;4824358;29;20145;-70
2022/02/13 07:11:15;;;;;;;13.23;7.15;;;;;;;;;;4823427;29;20455;-72
2022/02/13 07:13:41;;;;;;;14.70;7.07;;;;;;;;;;4829175;29;20050;-70
2022/02/13 07:16:07;;;;;;;13.70;7.55;;;;;;;;;;4826952;29;20079;-72
2022/02/13 07:18:33;;;;;;;14.85;7.03;;;;;;;;;;4826865;29;20149;-71
2022/02/13 07:20:59;;;;;;;12.05;7.45;;;;;;;;;;4825370;29;20168;-73
2022/02/13 07:23:26;;;;;;;12.48;6.80;;;;;;;;;;4827374;29;20054;-71
2022/02/13 07:25:53;;;;;;;12.55;6.72;;;;;;;;;;4825726;29;20062;-72
2022/02/13 07:31:04;;;;;;;14.45;6.97;;;;;;;;;;4825324;29;20080;-71
2022/02/13 07:33:30;;;;;;;12.48;7.30;;;;;;;;;;4825789;29;20048;-71
2022/02/13 07:35:56;;;;;;;13.50;6.78;;;;;;;;;;4824500;29;20118;-71
2022/02/13 07:38:22;;;;;;;12.90;7.68;;;;;;;;;;4827321;29;20053;-71
2022/02/13 07:40:48;;;;;;;13.90;7.40;;;;;;;;;;4825771;29;20093;-71
2022/02/13 07:43:15;;;;;;;12.15;7.40;;;;;;;;;;4841724;29;20069;-74
2022/02/13 07:45:42;;;;;;;13.02;7.10;;;;;;;;;;4826614;29;20062;-71
2022/02/13 07:48:09;;;;;;;12.70;6.82;;;;;;;;;;4812526;29;20073;-71
2022/02/13 07:50:36;;;;;;;14.88;6.78;;;;;;;;;;4832097;29;20061;-71
2022/02/13 07:53:02;;;;;;;12.63;7.13;;;;;;;;;;4810539;29;20053;-71
2022/02/13 07:55:29;;;;;;;12.90;7.00;;;;;;;;;;4823051;29;20458;-70
2022/02/13 07:57:56;;;;;;;10.75;6.85;;;;;;;;;;4848354;29;20050;-71
2022/02/13 08:00:22;;;;;;;11.55;6.45;;;;;;;;;;4824385;29;20053;-71
2022/02/13 08:02:48;;;;;;;13.50;6.82;;;;;;;;;;4834085;29;20049;-70
2022/02/13 08:05:14;;;;;;;12.05;6.80;;;;;;;;;;4808509;29;20073;-70
2022/02/13 08:07:45;;;;;;;16.45;6.93;;;;;;;;;;4836514;29;20054;-73
2022/02/13 08:10:11;;;;;;;12.27;7.07;;;;;;;;;;4827329;29;20433;-70
2022/02/13 08:12:37;;;;;;;11.20;6.80;;;;;;;;;;4812492;29;20050;-71
2022/02/13 08:15:03;;;;;;;11.25;7.32;;;;;;;;;;4829506;29;20077;-71
2022/02/13 08:17:29;;;;;;;15.80;7.32;;;;;;;;;;4827062;29;20065;-70
2022/02/13 08:19:55;;;;;;;10.38;6.55;;;;;;;;;;4818980;29;20046;-72
2022/02/13 08:22:21;;;;;;;12.80;7.72;;;;;;;;;;4822488;29;20387;-72
2022/02/13 08:24:47;;;;;;;12.52;6.97;;;;;;;;;;4821572;29;20374;-72
2022/02/13 08:27:13;;;;;;;8.65;6.32;;;;;;;;;;4824553;29;20393;-72
2022/02/13 08:29:40;;;;;;;12.38;7.28;;;;;;;;;;4824990;29;20054;-71
2022/02/13 08:32:06;;;;;;;9.30;6.65;;;;;;;;;;4808869;29;20062;-73
2022/02/13 08:34:32;;;;;;;12.35;6.60;;;;;;;;;;4822845;29;20149;-71
2022/02/13 08:36:59;;;;;;;14.10;7.22;;;;;;;;;;4809138;29;20548;-73
2022/02/13 08:39:25;;;;;;;14.13;6.80;;;;;;;;;;4824629;29;20124;-72
2022/02/13 08:41:51;;;;;;;8.80;6.18;;;;;;;;;;4825195;29;20050;-75
2022/02/13 08:44:17;;;;;;;11.65;6.57;;;;;;;;;;4815810;29;20512;-72
2022/02/13 08:46:43;;;;;;;12.95;6.63;;;;;;;;;;4812472;29;20042;-78
2022/02/13 08:49:09;;;;;;;10.18;6.05;;;;;;;;;;4809602;29;20096;-72
2022/02/13 08:51:35;;;;;;;12.45;6.70;;;;;;;;;;4824145;29;20069;-72
2022/02/13 08:54:01;;;;;;;9.90;6.53;;;;;;;;;;4810790;29;20085;-71
2022/02/13 08:56:27;;;;;;;9.52;6.15;;;;;;;;;;4812094;29;20138;-71
2022/02/13 08:58:55;;;;;;;11.13;6.38;;;;;;;;;;4813649;29;20046;-71
2022/02/13 09:01:22;;;;;;;11.45;6.40;;;;;;;;;;4820094;29;20054;-71
2022/02/13 09:03:48;;;;;;;13.02;6.95;;;;;;;;;;4811655;29;20063;-72
2022/02/13 09:06:14;;;;;;;11.32;6.60;;;;;;;;;;4821428;29;20045;-72
2022/02/13 09:08:40;;;;;;;7.28;5.45;;;;;;;;;;4823297;29;20414;-72
2022/02/13 09:11:06;;;;;;;12.50;7.00;;;;;;;;;;4825632;29;20057;-71
2022/02/13 09:13:32;;;;;;;12.55;6.97;;;;;;;;;;4810856;29;20137;-72
2022/02/13 09:15:58;;;;;;;14.70;6.60;;;;;;;;;;4809337;29;20103;-71
2022/02/13 09:18:24;;;;;;;13.68;7.30;;;;;;;;;;4823838;29;20461;-71
2022/02/13 09:20:50;;;;;;;13.10;7.72;;;;;;;;;;4819786;29;20404;-73
2022/02/13 09:23:17;;;;;;;12.85;7.30;;;;;;;;;;4820662;29;20164;-71
2022/02/13 09:25:44;;;;;;;12.77;6.68;;;;;;;;;;4808085;29;20131;-71
2022/02/13 09:28:10;;;;;;;10.70;6.63;;;;;;;;;;4809496;29;20143;-71
2022/02/13 09:30:36;;;;;;;13.60;7.18;;;;;;;;;;4792989;29;20086;-72
2022/02/13 09:33:03;;;;;;;11.90;6.35;;;;;;;;;;4818762;29;20115;-71
2022/02/13 09:35:29;;;;;;;19.33;7.97;;;;;;;;;;4792756;29;20058;-73
2022/02/13 09:37:56;;;;;;;10.20;6.25;;;;;;;;;;4805005;29;20061;-72
2022/02/13 09:40:23;;;;;;;10.57;6.85;;;;;;;;;;4803134;29;20052;-73
2022/02/13 09:42:49;;;;;;;9.43;5.97;;;;;;;;;;4800818;29;20090;-76
2022/02/13 09:45:15;;;;;;;13.50;6.85;;;;;;;;;;4809562;29;20047;-71
2022/02/13 09:47:41;;;;;;;11.60;6.50;;;;;;;;;;4826019;29;20051;-75
2022/02/13 09:50:08;;;;;;;11.93;7.35;;;;;;;;;;4821076;29;20066;-71
2022/02/13 09:52:34;;;;;;;12.63;6.50;;;;;;;;;;4807394;29;20065;-72
2022/02/13 09:55:00;;;;;;;13.80;6.80;;;;;;;;;;4799686;29;20065;-72
2022/02/13 10:00:10;;;;;;;11.15;6.13;;;;;;;;;;4788674;29;20117;-71
2022/02/13 10:02:37;;;;;;;9.50;6.00;;;;;;;;;;4801697;29;20065;-71
2022/02/13 10:05:05;;;;;;;10.25;6.03;;;;;;;;;;4807859;29;20383;-71
2022/02/13 10:07:32;;;;;;;11.00;6.07;;;;;;;;;;4806643;29;20099;-71
2022/02/13 10:09:59;;;;;;;10.95;6.63;;;;;;;;;;4805098;29;20491;-74
2022/02/13 10:12:31;;;;;;;10.50;6.55;;;;;;;;;;4792084;29;20047;-72
2022/02/13 10:14:57;;;;;;;11.38;6.05;;;;;;;;;;4821980;29;20066;-71
2022/02/13 10:17:25;;;;;;;10.35;6.13;;;;;;;;;;4783679;29;20061;-71
2022/02/13 10:19:54;;;;;;;11.23;6.65;;;;;;;;;;4818858;29;20058;-71
2022/02/13 10:22:34;;;;;;;11.00;6.35;;;;;;;;;;4807607;29;20133;-71
2022/02/13 10:25:13;;;;;;;11.52;6.80;;;;;;;;;;4820142;29;20099;-73
2022/02/13 10:27:49;;;;;;;11.13;6.65;;;;;;;;;;4788821;29;20062;-72
2022/02/13 10:30:35;;;;;;;10.38;6.25;;;;;;;;;;4797007;29;20467;-71
2022/02/13 10:33:20;;;;;;;13.18;6.15;;;;;;;;;;4812396;29;20102;-71
2022/02/13 10:36:03;;;;;;;8.77;6.00;;;;;;;;;;4803821;29;20395;-71
2022/02/13 10:38:35;;;;;;;7.47;5.97;;;;;;;;;;4824668;29;20053;-71
2022/02/13 10:41:22;;;;;;;10.77;6.15;;;;;;;;;;4816666;29;20106;-71
2022/02/13 10:43:52;;;;;;;10.45;6.13;;;;;;;;;;4790964;29;20062;-70
2022/02/13 10:46:19;;;;;;;12.48;6.50;;;;;;;;;;4816094;29;20086;-70
2022/02/13 10:48:45;;;;;;;9.57;6.63;;;;;;;;;;4794828;29;20050;-70
2022/02/13 10:51:12;;;;;;;10.60;6.00;;;;;;;;;;4823904;29;20063;-70
2022/02/13 10:53:39;;;;;;;10.20;5.90;;;;;;;;;;4818771;29;20090;-70
2022/02/13 10:56:06;;;;;;;12.13;6.43;;;;;;;;;;4823349;29;20065;-70
2022/02/13 10:58:32;;;;;;;9.85;6.57;;;;;;;;;;4804011;29;20046;-70
2022/02/13 11:01:00;;;;;;;8.85;6.38;;;;;;;;;;4799692;29;20043;-71
2022/02/13 11:03:31;;;;;;;7.88;5.85;;;;;;;;;;4803428;29;20058;-71
2022/02/13 11:05:59;;;;;;;10.07;5.88;;;;;;;;;;4825635;29;20046;-74
2022/02/13 11:08:28;;;;;;;11.43;6.18;;;;;;;;;;4794080;29;20050;-70
2022/02/13 11:10:57;;;;;;;10.15;6.25;;;;;;;;;;4816001;29;20196;-71
2022/02/13 11:13:33;;;;;;;9.57;6.22;;;;;;;;;;4788439;29;20046;-70
2022/02/13 11:16:00;;;;;;;10.68;5.80;;;;;;;;;;4809876;29;20081;-71
2022/02/13 11:18:27;;;;;;;10.65;6.53;;;;;;;;;;4797345;29;20487;-71
2022/02/13 11:20:55;;;;;;;9.73;6.28;;;;;;;;;;4813166;29;20054;-70
2022/02/13 11:23:24;;;;;;;11.63;6.55;;;;;;;;;;4787980;29;20057;-70
2022/02/13 11:25:53;;;;;;;9.93;5.97;;;;;;;;;;4801328;29;20046;-70
2022/02/13 11:28:24;;;;;;;8.48;5.28;;;;;;;;;;4807218;29;20581;-70
2022/02/13 11:30:50;;;;;;;9.52;5.72;;;;;;;;;;4838088;29;20061;-70
2022/02/13 11:33:26;;;;;;;10.77;5.70;;;;;;;;;;4819934;29;20411;-70
2022/02/13 11:35:52;;;;;;;8.65;5.68;;;;;;;;;;4821919;29;20061;-70
2022/02/13 11:38:36;;;;;;;8.82;5.35;;;;;;;;;;4821058;29;20133;-70
2022/02/13 11:41:03;;;;;;;8.77;5.32;;;;;;;;;;4805242;29;20462;-70
2022/02/13 11:43:47;;;;;;;10.27;5.93;;;;;;;;;;4821068;29;20077;-71
2022/02/13 11:46:34;;;;;;;9.40;5.68;;;;;;;;;;4812993;29;20038;-70
2022/02/13 11:49:02;;;;;;;8.82;5.63;;;;;;;;;;4805628;29;20050;-71
2022/02/13 11:51:46;;;;;;;8.38;5.35;;;;;;;;;;4806661;29;20127;-70
2022/02/13 11:54:31;;;;;;;9.32;5.22;;;;;;;;;;4805604;29;20046;-70
2022/02/13 11:57:11;;;;;;;8.30;5.32;;;;;;;;;;4824247;29;20053;-70
2022/02/13 11:59:48;;;;;;;9.15;5.75;;;;;;;;;;4821056;29;20103;-70
2022/02/13 12:02:18;;;;;;;8.50;5.85;;;;;;;;;;4816716;29;20494;-71
2022/02/13 12:05:03;;;;;;;10.43;6.43;;;;;;;;;;4825585;29;20054;-70
2022/02/13 12:07:38;;;;;;;9.38;5.97;;;;;;;;;;4818041;29;20057;-70
2022/02/13 12:10:04;;;;;;;8.80;5.93;;;;;;;;;;4822957;29;20057;-70
2022/02/13 12:12:34;;;;;;;10.25;6.07;;;;;;;;;;4823628;29;20051;-71
2022/02/13 12:15:00;;;;;;;7.75;4.50;;;;;;;;;;4827112;29;20158;-72
2022/02/13 12:17:26;;;;;;;8.25;5.10;;;;;;;;;;4808824;29;20057;-70
2022/02/13 12:20:04;;;;;;;7.95;5.00;;;;;;;;;;4815382;29;20057;-70
2022/02/13 12:22:30;;;;;;;7.00;4.80;;;;;;;;;;4818477;29;20179;-70
2022/02/13 12:25:00;;;;;;;7.15;5.00;;;;;;;;;;4822046;29;20402;-70
2022/02/13 12:27:27;;;;;;;8.05;5.35;;;;;;;;;;4819594;29;20157;-70
2022/02/13 12:29:57;;;;;;;6.72;5.20;;;;;;;;;;4818340;29;20141;-70
2022/02/13 12:32:27;;;;;;;7.10;4.70;;;;;;;;;;4823715;29;20551;-70
2022/02/13 12:34:58;;;;;;;10.13;4.45;;;;;;;;;;4821215;29;20477;-70
2022/02/13 12:37:33;;;;;;;8.80;4.95;;;;;;;;;;4820941;29;20126;-70
2022/02/13 12:39:59;;;;;;;7.78;5.20;;;;;;;;;;4824503;29;20095;-70
2022/02/13 12:42:29;;;;;;;9.43;5.30;;;;;;;;;;4833343;29;20050;-70
2022/02/13 12:44:57;;;;;;;8.10;5.22;;;;;;;;;;4824784;29;20637;-70
2022/02/13 12:47:42;;;;;;;8.52;5.07;;;;;;;;;;4825679;29;20143;-70
2022/02/13 12:50:12;;;;;;;7.55;5.35;;;;;;;;;;4826427;29;20054;-70
2022/02/13 12:52:39;;;;;;;7.70;5.07;;;;;;;;;;4825711;29;20194;-70
2022/02/13 12:55:09;;;;;;;8.00;4.50;;;;;;;;;;4813960;29;20069;-71
2022/02/13 12:57:35;;;;;;;6.85;4.95;;;;;;;;;;4821970;29;20060;-70
2022/02/13 13:00:01;;;;;;;9.05;5.20;;;;;;;;;;4822599;29;20494;-70
2022/02/13 13:02:28;;;;;;;7.43;4.53;;;;;;;;;;4825019;29;20054;-70
2022/02/13 13:04:54;;;;;;;6.20;4.45;;;;;;;;;;4824222;29;20049;-71
2022/02/13 13:07:24;;;;;;;8.63;5.13;;;;;;;;;;4819617;29;20386;-70
2022/02/13 13:09:51;;;;;;;6.53;4.55;;;;;;;;;;4815462;29;20485;-73
2022/02/13 13:12:17;;;;;;;8.40;4.30;;;;;;;;;;4822918;29;20047;-70
2022/02/13 13:14:54;;;;;;;7.28;4.97;;;;;;;;;;4821507;29;20053;-70
2022/02/13 13:17:20;;;;;;;6.13;4.32;;;;;;;;;;4818115;29;20112;-70
2022/02/13 13:19:46;;;;;;;6.07;4.50;;;;;;;;;;4807880;29;20058;-70
2022/02/13 13:22:20;;;;;;;9.50;4.40;;;;;;;;;;4823277;29;20490;-70
2022/02/13 13:24:47;;;;;;;5.78;4.10;;;;;;;;;;4819268;29;20050;-70
2022/02/13 13:27:24;;;;;;;7.35;5.00;;;;;;;;;;4811046;29;20057;-70
2022/02/13 13:29:51;;;;;;;8.90;5.32;;;;;;;;;;4810151;29;20087;-70
2022/02/13 13:32:18;;;;;;;5.70;4.70;;;;;;;;;;4824062;29;20057;-71
2022/02/13 13:34:44;;;;;;;9.65;5.00;;;;;;;;;;4840596;29;20050;-70
2022/02/13 13:37:35;;;;;;;6.43;4.57;;;;;;;;;;4821129;29;20084;-70
2022/02/13 13:40:04;;;;;;;8.30;4.75;;;;;;;;;;4825793;29;20107;-70
2022/02/13 13:42:31;;;;;;;6.45;4.43;;;;;;;;;;4816207;29;20042;-70
2022/02/13 13:45:04;;;;;;;5.78;4.45;;;;;;;;;;4836906;29;20120;-70
2022/02/13 13:47:31;;;;;;;9.07;4.70;;;;;;;;;;4810105;29;20085;-70
2022/02/13 13:49:57;;;;;;;5.38;4.22;;;;;;;;;;4821613;29;20123;-70
2022/02/13 13:52:23;;;;;;;5.97;3.95;;;;;;;;;;4826038;29;20050;-70
2022/02/13 13:54:49;;;;;;;5.40;3.70;;;;;;;;;;4835658;29;20054;-70
2022/02/13 13:57:15;;;;;;;6.65;3.92;;;;;;;;;;4805364;29;20129;-70
2022/02/13 13:59:41;;;;;;;6.53;3.72;;;;;;;;;;4822598;29;20054;-71
2022/02/13 14:02:19;;;;;;;4.97;3.90;;;;;;;;;;4807520;29;20079;-70
2022/02/13 14:04:45;;;;;;;6.47;4.25;;;;;;;;;;4823033;29;20544;-70
2022/02/13 14:07:11;;;;;;;8.23;4.28;;;;;;;;;;4833930;29;20046;-73
2022/02/13 14:09:37;;;;;;;7.10;3.78;;;;;;;;;;4807801;29;20061;-71
2022/02/13 14:12:04;;;;;;;6.32;4.30;;;;;;;;;;4822189;29;20118;-71
2022/02/13 14:14:31;;;;;;;6.13;4.55;;;;;;;;;;4813518;29;20470;-71
2022/02/13 14:16:57;;;;;;;5.15;3.63;;;;;;;;;;4814816;29;20513;-70
2022/02/13 14:19:23;;;;;;;6.20;3.92;;;;;;;;;;4815777;29;20045;-70
2022/02/13 14:21:49;;;;;;;6.05;4.40;;;;;;;;;;4809342;29;20469;-71
2022/02/13 14:24:15;;;;;;;6.03;3.92;;;;;;;;;;4811955;29;20501;-71
2022/02/13 14:26:41;;;;;;;7.28;3.72;;;;;;;;;;4823450;29;20046;-70
2022/02/13 14:29:08;;;;;;;7.07;4.25;;;;;;;;;;4820582;29;20058;-70
2022/02/13 14:31:34;;;;;;;6.03;4.43;;;;;;;;;;4806462;29;20062;-71
2022/02/13 14:34:00;;;;;;;6.53;4.40;;;;;;;;;;4816366;29;20053;-71
2022/02/13 14:36:26;;;;;;;8.25;4.30;;;;;;;;;;4838544;29;20497;-70
2022/02/13 14:38:52;;;;;;;6.40;3.85;;;;;;;;;;4806432;29;20065;-71
2022/02/13 14:41:18;;;;;;;6.88;4.55;;;;;;;;;;4820653;29;20057;-70